sensor_id;sensor_type;location;lat;lon;timestamp;pressure;altitude;pressure_sealevel;temperature;humidity
49104;BME280;34915;52.926;11.116;2023-01-16T00:01:01;99748.22;;;5.59;100.00
49104;BME280;34915;52.926;11.116;2023-01-16T00:03:27;99760.44;;;5.60;100.00
49104;BME280;34915;52.926;11.116;2023-01-16T00:05:53;99752.97;;;5.54;100.00
49104;BME280;34915;52.926;11.116;2023-01-16T00:08:19;99752.81;;;5.43;100.00
49104;BME280;34915;52.926;11.116;2023-01-16T00:10:44;99744.22;;;5.41;100.00
49104;BME280;34915;52.926;11.116;2023-01-16T00:13:12;99742.75;;;5.49;100.00
49104;BME280;34915;52.926;11.116;2023-01-16T00:15:38;99729.75;;;5.60;100.00
49104;BME280;34915;52.926;11.116;2023-01-16T00:18:03;99734.38;;;5.57;100.00
49104;BME280;34915;52.926;11.116;2023-01-16T00:20:29;99741.53;;;5.55;100.00
49104;BME280;34915;52.926;11.116;2023-01-16T00:22:55;99740.25;;;5.48;100.00
49104;BME280;34915;52.926;11.116;2023-01-16T00:25:21;99743.16;;;5.43;100.00
49104;BME280;34915;52.926;11.116;2023-01-16T00:27:47;99740.09;;;5.37;100.00
49104;BME280;34915;52.926;11.116;2023-01-16T00:30:12;99746.50;;;5.33;100.00
49104;BME280;34915;52.926;11.116;2023-01-16T00:32:38;99744.41;;;5.38;100.00
49104;BME280;34915;52.926;11.116;2023-01-16T00:35:04;99736.22;;;5.42;100.00
49104;BME280;34915;52.926;11.116;2023-01-16T00:37:30;99731.41;;;5.49;100.00
49104;BME280;34915;52.926;11.116;2023-01-16T00:39:56;99735.19;;;5.45;100.00
49104;BME280;34915;52.926;11.116;2023-01-16T00:42:21;99726.03;;;5.38;99.50
49104;BME280;34915;52.926;11.116;2023-01-16T00:44:47;99722.13;;;5.31;100.00
49104;BME280;34915;52.926;11.116;2023-01-16T00:47:12;99722.53;;;5.25;100.00
49104;BME280;34915;52.926;11.116;2023-01-16T00:49:38;99727.16;;;5.34;100.00
49104;BME280;34915;52.926;11.116;2023-01-16T00:52:04;99726.66;;;5.29;100.00
49104;BME280;34915;52.926;11.116;2023-01-16T00:54:30;99718.75;;;5.29;100.00
49104;BME280;34915;52.926;11.116;2023-01-16T00:56:55;99736.00;;;5.33;100.00
49104;BME280;34915;52.926;11.116;2023-01-16T00:59:21;99739.38;;;5.35;100.00
49104;BME280;34915;52.926;11.116;2023-01-16T01:01:47;99726.56;;;5.43;100.00
49104;BME280;34915;52.926;11.116;2023-01-16T01:04:15;99722.78;;;5.47;100.00
49104;BME280;34915;52.926;11.116;2023-01-16T01:06:42;99724.50;;;5.48;100.00
49104;BME280;34915;52.926;11.116;2023-01-16T01:09:07;99733.50;;;5.44;99.57
49104;BME280;34915;52.926;11.116;2023-01-16T01:11:33;99729.75;;;5.48;100.00
49104;BME280;34915;52.926;11.116;2023-01-16T01:13:59;99718.81;;;5.66;99.80
49104;BME280;34915;52.926;11.116;2023-01-16T01:16:24;99722.59;;;5.50;99.86
49104;BME280;34915;52.926;11.116;2023-01-16T01:18:52;99731.94;;;5.54;100.00
49104;BME280;34915;52.926;11.116;2023-01-16T01:21:18;99721.44;;;5.54;99.57
49104;BME280;34915;52.926;11.116;2023-01-16T01:23:43;99719.03;;;5.51;99.40
49104;BME280;34915;52.926;11.116;2023-01-16T01:26:14;99710.00;;;5.55;100.00
49104;BME280;34915;52.926;11.116;2023-01-16T01:28:40;99717.88;;;5.55;99.86
49104;BME280;34915;52.926;11.116;2023-01-16T01:31:08;99715.25;;;5.55;100.00
49104;BME280;34915;52.926;11.116;2023-01-16T01:33:35;99714.41;;;5.54;99.64
49104;BME280;34915;52.926;11.116;2023-01-16T01:36:01;99709.38;;;5.64;99.35
49104;BME280;34915;52.926;11.116;2023-01-16T01:38:27;99710.94;;;5.54;99.69
49104;BME280;34915;52.926;11.116;2023-01-16T01:40:53;99711.88;;;5.53;99.71
49104;BME280;34915;52.926;11.116;2023-01-16T01:43:19;99706.56;;;5.67;98.50
49104;BME280;34915;52.926;11.116;2023-01-16T01:45:51;99707.59;;;5.64;99.57
49104;BME280;34915;52.926;11.116;2023-01-16T01:48:23;99705.69;;;5.66;100.00
49104;BME280;34915;52.926;11.116;2023-01-16T01:50:57;99698.69;;;5.67;99.12
49104;BME280;34915;52.926;11.116;2023-01-16T01:53:31;99688.69;;;5.59;98.92
49104;BME280;34915;52.926;11.116;2023-01-16T01:56:12;99688.59;;;5.61;98.81
49104;BME280;34915;52.926;11.116;2023-01-16T01:58:41;99686.31;;;5.81;97.55
49104;BME280;34915;52.926;11.116;2023-01-16T02:01:08;99685.66;;;5.78;97.17
49104;BME280;34915;52.926;11.116;2023-01-16T02:03:38;99695.56;;;5.74;96.75
49104;BME280;34915;52.926;11.116;2023-01-16T02:06:14;99683.78;;;5.80;97.13
49104;BME280;34915;52.926;11.116;2023-01-16T02:08:43;99682.09;;;5.79;96.77
49104;BME280;34915;52.926;11.116;2023-01-16T02:11:37;99669.38;;;5.73;97.23
49104;BME280;34915;52.926;11.116;2023-01-16T02:14:12;99671.97;;;5.73;95.98
49104;BME280;34915;52.926;11.116;2023-01-16T02:16:38;99665.88;;;5.60;97.77
49104;BME280;34915;52.926;11.116;2023-01-16T02:44:32;99624.16;;;5.43;99.42
49104;BME280;34915;52.926;11.116;2023-01-16T02:47:27;99624.16;;;5.43;97.62
49104;BME280;34915;52.926;11.116;2023-01-16T02:55:30;99611.44;;;5.37;96.89
49104;BME280;34915;52.926;11.116;2023-01-16T02:58:01;99608.53;;;5.29;98.06
49104;BME280;34915;52.926;11.116;2023-01-16T03:00:27;99599.06;;;5.14;98.67
49104;BME280;34915;52.926;11.116;2023-01-16T03:02:54;99597.78;;;5.07;98.73
49104;BME280;34915;52.926;11.116;2023-01-16T03:05:21;99594.22;;;5.08;100.00
49104;BME280;34915;52.926;11.116;2023-01-16T03:08:07;99590.97;;;5.17;97.57
49104;BME280;34915;52.926;11.116;2023-01-16T03:10:50;99586.44;;;5.07;99.11
49104;BME280;34915;52.926;11.116;2023-01-16T03:16:39;99582.56;;;5.12;98.79
49104;BME280;34915;52.926;11.116;2023-01-16T03:22:24;99573.34;;;5.19;97.58
49104;BME280;34915;52.926;11.116;2023-01-16T03:30:26;99573.44;;;5.18;98.07
49104;BME280;34915;52.926;11.116;2023-01-16T03:33:07;99560.22;;;5.19;97.14
49104;BME280;34915;52.926;11.116;2023-01-16T03:35:47;99564.19;;;5.12;98.61
49104;BME280;34915;52.926;11.116;2023-01-16T03:38:16;99560.41;;;5.16;98.72
49104;BME280;34915;52.926;11.116;2023-01-16T03:40:46;99549.72;;;5.19;97.26
49104;BME280;34915;52.926;11.116;2023-01-16T03:43:30;99551.41;;;5.20;97.17
49104;BME280;34915;52.926;11.116;2023-01-16T03:51:17;99545.94;;;5.23;96.50
49104;BME280;34915;52.926;11.116;2023-01-16T03:53:47;99541.13;;;5.17;97.99
49104;BME280;34915;52.926;11.116;2023-01-16T03:58:57;99525.56;;;5.14;97.03
49104;BME280;34915;52.926;11.116;2023-01-16T04:01:36;99523.69;;;5.16;97.22
49104;BME280;34915;52.926;11.116;2023-01-16T04:04:32;99525.78;;;5.11;97.91
49104;BME280;34915;52.926;11.116;2023-01-16T04:07:11;99529.34;;;5.10;98.76
49104;BME280;34915;52.926;11.116;2023-01-16T04:09:47;99528.28;;;5.00;99.01
49104;BME280;34915;52.926;11.116;2023-01-16T04:12:15;99523.88;;;5.01;99.43
49104;BME280;34915;52.926;11.116;2023-01-16T04:14:48;99517.38;;;5.06;98.88
49104;BME280;34915;52.926;11.116;2023-01-16T04:17:16;99522.00;;;5.15;97.60
49104;BME280;34915;52.926;11.116;2023-01-16T04:19:43;99516.75;;;5.15;97.93
49104;BME280;34915;52.926;11.116;2023-01-16T04:22:18;99522.19;;;5.12;98.57
49104;BME280;34915;52.926;11.116;2023-01-16T04:24:45;99515.50;;;5.08;98.30
49104;BME280;34915;52.926;11.116;2023-01-16T04:27:11;99511.41;;;5.04;97.98
49104;BME280;34915;52.926;11.116;2023-01-16T04:29:36;99507.91;;;5.04;98.21
49104;BME280;34915;52.926;11.116;2023-01-16T04:32:02;99500.16;;;5.02;97.20
49104;BME280;34915;52.926;11.116;2023-01-16T04:34:28;99500.56;;;4.96;97.68
49104;BME280;34915;52.926;11.116;2023-01-16T04:36:53;99490.50;;;4.90;99.61
49104;BME280;34915;52.926;11.116;2023-01-16T04:39:19;99486.94;;;4.91;97.59
49104;BME280;34915;52.926;11.116;2023-01-16T04:41:45;99482.13;;;4.86;98.08
49104;BME280;34915;52.926;11.116;2023-01-16T04:44:16;99480.00;;;4.78;97.80
49104;BME280;34915;52.926;11.116;2023-01-16T04:46:42;99477.69;;;4.74;98.05
49104;BME280;34915;52.926;11.116;2023-01-16T04:49:08;99473.91;;;4.65;98.30
49104;BME280;34915;52.926;11.116;2023-01-16T04:51:37;99471.59;;;4.61;98.73
49104;BME280;34915;52.926;11.116;2023-01-16T04:54:04;99470.13;;;4.57;98.43
49104;BME280;34915;52.926;11.116;2023-01-16T04:56:31;99463.38;;;4.53;98.60
49104;BME280;34915;52.926;11.116;2023-01-16T04:58:57;99459.84;;;4.54;99.20
49104;BME280;34915;52.926;11.116;2023-01-16T05:01:23;99451.66;;;4.46;98.64
49104;BME280;34915;52.926;11.116;2023-01-16T05:03:49;99455.84;;;4.48;98.91
49104;BME280;34915;52.926;11.116;2023-01-16T05:06:14;99449.97;;;4.45;99.00
49104;BME280;34915;52.926;11.116;2023-01-16T05:08:40;99453.75;;;4.53;98.61
49104;BME280;34915;52.926;11.116;2023-01-16T05:11:06;99460.03;;;4.51;99.17
49104;BME280;34915;52.926;11.116;2023-01-16T05:13:32;99456.50;;;4.52;98.34
49104;BME280;34915;52.926;11.116;2023-01-16T05:15:57;99447.88;;;4.50;98.47
49104;BME280;34915;52.926;11.116;2023-01-16T05:18:23;99454.59;;;4.54;98.03
49104;BME280;34915;52.926;11.116;2023-01-16T05:20:49;99451.00;;;4.42;98.94
49104;BME280;34915;52.926;11.116;2023-01-16T05:23:15;99450.38;;;4.39;98.62
49104;BME280;34915;52.926;11.116;2023-01-16T05:25:41;99448.91;;;4.35;100.00
49104;BME280;34915;52.926;11.116;2023-01-16T05:28:06;99439.69;;;4.42;100.00
49104;BME280;34915;52.926;11.116;2023-01-16T05:30:32;99430.25;;;4.39;100.00
49104;BME280;34915;52.926;11.116;2023-01-16T05:32:58;99430.69;;;4.46;99.46
49104;BME280;34915;52.926;11.116;2023-01-16T05:35:23;99425.81;;;4.40;100.00
49104;BME280;34915;52.926;11.116;2023-01-16T05:37:50;99427.09;;;4.47;100.00
49104;BME280;34915;52.926;11.116;2023-01-16T05:40:15;99431.06;;;4.40;100.00
49104;BME280;34915;52.926;11.116;2023-01-16T05:42:42;99422.91;;;4.32;100.00
49104;BME280;34915;52.926;11.116;2023-01-16T05:45:09;99419.75;;;4.27;100.00
49104;BME280;34915;52.926;11.116;2023-01-16T05:47:35;99416.16;;;4.28;100.00
49104;BME280;34915;52.926;11.116;2023-01-16T05:50:01;99407.78;;;4.23;100.00
49104;BME280;34915;52.926;11.116;2023-01-16T05:52:27;99409.28;;;4.27;100.00
49104;BME280;34915;52.926;11.116;2023-01-16T05:54:55;99407.59;;;4.26;100.00
49104;BME280;34915;52.926;11.116;2023-01-16T05:57:21;99405.47;;;4.19;100.00
49104;BME280;34915;52.926;11.116;2023-01-16T05:59:51;99399.00;;;4.24;100.00
49104;BME280;34915;52.926;11.116;2023-01-16T06:02:18;99403.47;;;4.22;100.00
49104;BME280;34915;52.926;11.116;2023-01-16T06:04:44;99398.25;;;4.22;100.00
49104;BME280;34915;52.926;11.116;2023-01-16T06:07:10;99402.53;;;4.23;100.00
49104;BME280;34915;52.926;11.116;2023-01-16T06:09:39;99397.63;;;4.31;100.00
49104;BME280;34915;52.926;11.116;2023-01-16T06:12:05;99383.06;;;4.27;100.00
49104;BME280;34915;52.926;11.116;2023-01-16T06:14:35;99389.97;;;4.28;100.00
49104;BME280;34915;52.926;11.116;2023-01-16T06:17:01;99387.44;;;4.27;100.00
49104;BME280;34915;52.926;11.116;2023-01-16T06:19:27;99379.28;;;4.19;100.00
49104;BME280;34915;52.926;11.116;2023-01-16T06:21:52;99374.34;;;4.14;100.00
49104;BME280;34915;52.926;11.116;2023-01-16T06:24:18;99373.69;;;4.11;100.00
49104;BME280;34915;52.926;11.116;2023-01-16T06:26:43;99372.53;;;4.02;100.00
49104;BME280;34915;52.926;11.116;2023-01-16T06:29:09;99369.38;;;3.97;100.00
49104;BME280;34915;52.926;11.116;2023-01-16T06:31:35;99365.16;;;3.83;100.00
49104;BME280;34915;52.926;11.116;2023-01-16T06:34:01;99366.63;;;3.87;100.00
49104;BME280;34915;52.926;11.116;2023-01-16T06:36:27;99364.94;;;3.86;100.00
49104;BME280;34915;52.926;11.116;2023-01-16T06:38:53;99379.38;;;3.79;100.00
49104;BME280;34915;52.926;11.116;2023-01-16T06:41:19;99372.09;;;3.84;100.00
49104;BME280;34915;52.926;11.116;2023-01-16T06:43:44;99381.91;;;3.80;100.00
49104;BME280;34915;52.926;11.116;2023-01-16T06:46:10;99365.69;;;3.88;100.00
49104;BME280;34915;52.926;11.116;2023-01-16T06:48:36;99366.44;;;3.90;100.00
49104;BME280;34915;52.926;11.116;2023-01-16T06:51:02;99371.69;;;3.90;100.00
49104;BME280;34915;52.926;11.116;2023-01-16T06:53:28;99355.09;;;3.89;100.00
49104;BME280;34915;52.926;11.116;2023-01-16T06:55:54;99355.75;;;3.92;100.00
49104;BME280;34915;52.926;11.116;2023-01-16T06:58:19;99349.03;;;3.89;100.00
49104;BME280;34915;52.926;11.116;2023-01-16T07:00:46;99343.38;;;3.82;100.00
49104;BME280;34915;52.926;11.116;2023-01-16T07:03:16;99338.97;;;3.83;100.00
49104;BME280;34915;52.926;11.116;2023-01-16T07:05:43;99332.44;;;3.76;100.00
49104;BME280;34915;52.926;11.116;2023-01-16T07:08:08;99331.41;;;3.78;100.00
49104;BME280;34915;52.926;11.116;2023-01-16T07:10:35;99339.78;;;3.71;100.00
49104;BME280;34915;52.926;11.116;2023-01-16T07:13:00;99340.50;;;3.73;100.00
49104;BME280;34915;52.926;11.116;2023-01-16T07:15:26;99330.66;;;3.64;100.00
49104;BME280;34915;52.926;11.116;2023-01-16T07:18:14;99329.50;;;3.68;100.00
49104;BME280;34915;52.926;11.116;2023-01-16T07:21:01;99328.22;;;3.61;100.00
49104;BME280;34915;52.926;11.116;2023-01-16T07:23:54;99320.47;;;3.59;100.00
49104;BME280;34915;52.926;11.116;2023-01-16T07:26:21;99316.47;;;3.54;100.00
49104;BME280;34915;52.926;11.116;2023-01-16T07:28:48;99303.94;;;3.59;100.00
49104;BME280;34915;52.926;11.116;2023-01-16T07:31:14;99309.19;;;3.59;100.00
49104;BME280;34915;52.926;11.116;2023-01-16T07:33:41;99303.53;;;3.65;100.00
49104;BME280;34915;52.926;11.116;2023-01-16T07:36:06;99302.47;;;3.55;100.00
49104;BME280;34915;52.926;11.116;2023-01-16T07:38:33;99303.53;;;3.65;100.00
49104;BME280;34915;52.926;11.116;2023-01-16T07:40:59;99301.84;;;3.64;100.00
49104;BME280;34915;52.926;11.116;2023-01-16T07:43:24;99300.38;;;3.60;100.00
49104;BME280;34915;52.926;11.116;2023-01-16T07:45:50;99296.00;;;3.60;100.00
49104;BME280;34915;52.926;11.116;2023-01-16T07:48:22;99297.25;;;3.67;100.00
49104;BME280;34915;52.926;11.116;2023-01-16T07:50:52;99292.31;;;3.63;100.00
49104;BME280;34915;52.926;11.116;2023-01-16T07:53:19;99296.00;;;3.60;100.00
49104;BME280;34915;52.926;11.116;2023-01-16T07:55:53;99284.03;;;3.56;100.00
49104;BME280;34915;52.926;11.116;2023-01-16T07:58:20;99281.94;;;3.61;100.00
49104;BME280;34915;52.926;11.116;2023-01-16T08:00:52;99265.63;;;3.58;100.00
49104;BME280;34915;52.926;11.116;2023-01-16T08:03:17;99276.91;;;3.58;100.00
49104;BME280;34915;52.926;11.116;2023-01-16T08:05:43;99271.47;;;3.49;100.00
49104;BME280;34915;52.926;11.116;2023-01-16T08:08:09;99261.00;;;3.61;100.00
49104;BME280;34915;52.926;11.116;2023-01-16T08:10:36;99257.88;;;3.69;100.00
49104;BME280;34915;52.926;11.116;2023-01-16T08:13:02;99259.03;;;3.77;100.00
49104;BME280;34915;52.926;11.116;2023-01-16T08:15:27;99250.16;;;3.80;100.00
49104;BME280;34915;52.926;11.116;2023-01-16T08:17:53;99258.09;;;3.90;100.00
49104;BME280;34915;52.926;11.116;2023-01-16T08:20:19;99258.66;;;3.95;100.00
49104;BME280;34915;52.926;11.116;2023-01-16T08:22:49;99261.06;;;3.98;100.00
49104;BME280;34915;52.926;11.116;2023-01-16T08:25:21;99257.19;;;3.91;100.00
49104;BME280;34915;52.926;11.116;2023-01-16T08:27:47;99256.03;;;3.95;100.00
49104;BME280;34915;52.926;11.116;2023-01-16T08:30:15;99259.78;;;3.91;100.00
49104;BME280;34915;52.926;11.116;2023-01-16T08:32:41;99244.72;;;3.83;100.00
49104;BME280;34915;52.926;11.116;2023-01-16T08:35:08;99238.75;;;3.81;100.00
49104;BME280;34915;52.926;11.116;2023-01-16T08:37:34;99239.97;;;3.88;100.00
49104;BME280;34915;52.926;11.116;2023-01-16T08:39:59;99239.06;;;3.89;100.00
49104;BME280;34915;52.926;11.116;2023-01-16T08:42:25;99236.97;;;3.81;100.00
49104;BME280;34915;52.926;11.116;2023-01-16T08:45:11;99222.06;;;3.82;100.00
49104;BME280;34915;52.926;11.116;2023-01-16T08:47:56;99226.25;;;3.96;100.00
49104;BME280;34915;52.926;11.116;2023-01-16T08:50:42;99210.16;;;4.02;100.00
49104;BME280;34915;52.926;11.116;2023-01-16T08:53:26;99214.00;;;4.09;100.00
49104;BME280;34915;52.926;11.116;2023-01-16T08:55:52;99202.81;;;4.07;100.00
49104;BME280;34915;52.926;11.116;2023-01-16T08:58:18;99207.19;;;4.19;100.00
49104;BME280;34915;52.926;11.116;2023-01-16T09:00:46;99200.47;;;4.28;100.00
49104;BME280;34915;52.926;11.116;2023-01-16T09:03:12;99201.84;;;4.33;100.00
49104;BME280;34915;52.926;11.116;2023-01-16T09:05:37;99196.66;;;4.44;100.00
49104;BME280;34915;52.926;11.116;2023-01-16T09:08:03;99197.88;;;4.63;100.00
49104;BME280;34915;52.926;11.116;2023-01-16T09:10:29;99185.22;;;4.81;100.00
49104;BME280;34915;52.926;11.116;2023-01-16T09:12:56;99190.63;;;4.90;100.00
49104;BME280;34915;52.926;11.116;2023-01-16T09:15:40;99180.81;;;5.04;100.00
49104;BME280;34915;52.926;11.116;2023-01-16T09:18:06;99169.34;;;5.05;99.67
49104;BME280;34915;52.926;11.116;2023-01-16T09:20:32;99162.75;;;5.23;100.00
49104;BME280;34915;52.926;11.116;2023-01-16T09:22:59;99161.16;;;5.44;99.09
49104;BME280;34915;52.926;11.116;2023-01-16T09:25:25;99148.72;;;5.46;98.46
49104;BME280;34915;52.926;11.116;2023-01-16T09:27:50;99149.81;;;5.43;96.42
49104;BME280;34915;52.926;11.116;2023-01-16T09:30:16;99146.56;;;5.40;96.07
49104;BME280;34915;52.926;11.116;2023-01-16T09:32:44;99147.91;;;5.45;96.00
49104;BME280;34915;52.926;11.116;2023-01-16T09:35:11;99146.09;;;5.35;96.51
49104;BME280;34915;52.926;11.116;2023-01-16T09:37:37;99142.75;;;5.33;97.36
49104;BME280;34915;52.926;11.116;2023-01-16T09:40:03;99124.50;;;5.32;98.73
49104;BME280;34915;52.926;11.116;2023-01-16T09:45:31;99118.91;;;5.47;95.40
49104;BME280;34915;52.926;11.116;2023-01-16T09:48:11;99122.03;;;5.52;96.53
49104;BME280;34915;52.926;11.116;2023-01-16T09:50:46;99113.34;;;5.62;95.18
49104;BME280;34915;52.926;11.116;2023-01-16T09:54:06;99110.59;;;5.64;96.66
49104;BME280;34915;52.926;11.116;2023-01-16T09:56:27;99107.84;;;5.65;95.95
49104;BME280;34915;52.926;11.116;2023-01-16T09:59:28;99089.34;;;5.67;93.13
49104;BME280;34915;52.926;11.116;2023-01-16T10:02:04;99088.66;;;5.76;93.82
49104;BME280;34915;52.926;11.116;2023-01-16T10:04:32;99086.16;;;5.74;94.25
49104;BME280;34915;52.926;11.116;2023-01-16T10:15:54;99070.25;;;5.87;93.37
49104;BME280;34915;52.926;11.116;2023-01-16T10:21:15;99068.59;;;5.86;93.53
49104;BME280;34915;52.926;11.116;2023-01-16T10:32:26;99041.84;;;5.91;95.49
49104;BME280;34915;52.926;11.116;2023-01-16T10:35:03;99043.63;;;6.02;94.91
49104;BME280;34915;52.926;11.116;2023-01-16T10:37:33;99042.53;;;6.04;92.88
49104;BME280;34915;52.926;11.116;2023-01-16T10:40:10;99035.38;;;6.06;93.69
49104;BME280;34915;52.926;11.116;2023-01-16T10:42:41;99017.41;;;6.11;94.56
49104;BME280;34915;52.926;11.116;2023-01-16T10:45:30;99013.75;;;6.03;93.67
49104;BME280;34915;52.926;11.116;2023-01-16T10:48:17;98999.06;;;6.00;92.01
49104;BME280;34915;52.926;11.116;2023-01-16T10:51:02;98992.38;;;5.96;90.88
49104;BME280;34915;52.926;11.116;2023-01-16T10:53:29;98987.25;;;6.06;92.16
49104;BME280;34915;52.926;11.116;2023-01-16T10:55:56;98981.63;;;5.99;92.24
49104;BME280;34915;52.926;11.116;2023-01-16T10:58:26;98984.72;;;6.04;91.72
49104;BME280;34915;52.926;11.116;2023-01-16T11:01:01;98968.38;;;6.01;94.66
49104;BME280;34915;52.926;11.116;2023-01-16T11:08:48;98941.06;;;5.82;91.43
49104;BME280;34915;52.926;11.116;2023-01-16T11:11:15;98934.38;;;5.78;92.87
49104;BME280;34915;52.926;11.116;2023-01-16T11:14:05;98922.00;;;5.80;93.38
49104;BME280;34915;52.926;11.116;2023-01-16T11:16:55;98904.31;;;5.82;91.54
49104;BME280;34915;52.926;11.116;2023-01-16T11:19:42;98896.63;;;5.89;92.50
49104;BME280;34915;52.926;11.116;2023-01-16T11:22:22;98880.38;;;5.95;93.63
49104;BME280;34915;52.926;11.116;2023-01-16T11:24:48;98876.28;;;6.02;92.77
49104;BME280;34915;52.926;11.116;2023-01-16T11:27:18;98857.25;;;6.10;93.79
49104;BME280;34915;52.926;11.116;2023-01-16T11:29:45;98848.75;;;6.17;93.60
49104;BME280;34915;52.926;11.116;2023-01-16T11:32:13;98846.69;;;6.41;92.52
49104;BME280;34915;52.926;11.116;2023-01-16T11:34:45;98837.97;;;6.40;92.05
49104;BME280;34915;52.926;11.116;2023-01-16T11:37:13;98842.59;;;6.48;91.45
49104;BME280;34915;52.926;11.116;2023-01-16T11:39:40;98828.19;;;6.52;90.51
49104;BME280;34915;52.926;11.116;2023-01-16T11:42:10;98824.88;;;6.50;92.13
49104;BME280;34915;52.926;11.116;2023-01-16T11:44:57;98818.78;;;6.49;89.69
49104;BME280;34915;52.926;11.116;2023-01-16T11:47:43;98813.81;;;6.56;88.47
49104;BME280;34915;52.926;11.116;2023-01-16T11:50:29;98796.47;;;6.44;89.86
49104;BME280;34915;52.926;11.116;2023-01-16T11:52:56;98783.31;;;6.44;90.45
49104;BME280;34915;52.926;11.116;2023-01-16T11:55:28;98774.75;;;6.42;88.77
49104;BME280;34915;52.926;11.116;2023-01-16T11:58:19;98774.75;;;6.42;88.78
49104;BME280;34915;52.926;11.116;2023-01-16T12:01:05;98753.00;;;6.40;88.16
49104;BME280;34915;52.926;11.116;2023-01-16T12:04:13;98743.44;;;6.39;87.86
49104;BME280;34915;52.926;11.116;2023-01-16T12:06:52;98747.31;;;6.35;90.20
49104;BME280;34915;52.926;11.116;2023-01-16T12:09:39;98730.72;;;6.44;88.93
49104;BME280;34915;52.926;11.116;2023-01-16T12:15:07;98731.69;;;6.43;87.93
49104;BME280;34915;52.926;11.116;2023-01-16T12:17:59;98729.53;;;6.48;87.34
49104;BME280;34915;52.926;11.116;2023-01-16T12:20:49;98703.91;;;6.50;88.27
49104;BME280;34915;52.926;11.116;2023-01-16T12:23:32;98695.34;;;6.48;89.56
49104;BME280;34915;52.926;11.116;2023-01-16T12:26:16;98702.81;;;6.52;88.21
49104;BME280;34915;52.926;11.116;2023-01-16T12:34:28;98673.75;;;6.54;88.91
49104;BME280;34915;52.926;11.116;2023-01-16T12:39:37;98651.06;;;6.53;88.92
49104;BME280;34915;52.926;11.116;2023-01-16T12:53:14;98617.28;;;6.58;86.57
49104;BME280;34915;52.926;11.116;2023-01-16T12:55:50;98608.69;;;6.56;86.51
49104;BME280;34915;52.926;11.116;2023-01-16T12:58:27;98610.66;;;6.54;86.66
49104;BME280;34915;52.926;11.116;2023-01-16T13:03:44;98610.91;;;6.60;86.35
49104;BME280;34915;52.926;11.116;2023-01-16T13:06:15;98610.91;;;6.60;84.99
49104;BME280;34915;52.926;11.116;2023-01-16T13:08:46;98622.25;;;6.61;85.06
49104;BME280;34915;52.926;11.116;2023-01-16T13:11:50;98619.63;;;6.61;84.90
49104;BME280;34915;52.926;11.116;2023-01-16T13:14:37;98599.84;;;6.57;85.51
49104;BME280;34915;52.926;11.116;2023-01-16T13:17:08;98600.13;;;6.63;85.14
49104;BME280;34915;52.926;11.116;2023-01-16T13:19:38;98586.03;;;6.64;85.27
49104;BME280;34915;52.926;11.116;2023-01-16T13:24:46;98569.56;;;6.72;84.21
49104;BME280;34915;52.926;11.116;2023-01-16T13:27:17;98561.94;;;6.69;84.17
49104;BME280;34915;52.926;11.116;2023-01-16T13:30:01;98561.66;;;6.72;85.79
49104;BME280;34915;52.926;11.116;2023-01-16T13:32:34;98546.16;;;6.69;85.92
49104;BME280;34915;52.926;11.116;2023-01-16T13:44:03;98546.66;;;6.35;85.73
49104;BME280;34915;52.926;11.116;2023-01-16T13:46:50;98544.16;;;6.33;86.96
49104;BME280;34915;52.926;11.116;2023-01-16T13:49:20;98525.63;;;6.25;86.58
49104;BME280;34915;52.926;11.116;2023-01-16T13:51:47;98536.56;;;6.30;86.65
49104;BME280;34915;52.926;11.116;2023-01-16T13:54:34;98526.75;;;6.32;88.25
49104;BME280;34915;52.926;11.116;2023-01-16T13:57:07;98521.78;;;6.29;86.78
49104;BME280;34915;52.926;11.116;2023-01-16T13:59:40;98513.44;;;6.24;87.07
49104;BME280;34915;52.926;11.116;2023-01-16T14:10:46;98501.28;;;6.23;85.02
49104;BME280;34915;52.926;11.116;2023-01-16T14:13:35;98501.56;;;6.20;87.53
49104;BME280;34915;52.926;11.116;2023-01-16T14:19:21;98492.97;;;6.18;86.53
49104;BME280;34915;52.926;11.116;2023-01-16T14:21:47;98485.53;;;6.23;88.22
49104;BME280;34915;52.926;11.116;2023-01-16T14:24:40;98477.47;;;6.15;86.99
49104;BME280;34915;52.926;11.116;2023-01-16T14:27:13;98482.72;;;6.15;88.25
49104;BME280;34915;52.926;11.116;2023-01-16T14:29:56;98463.66;;;6.13;86.61
49104;BME280;34915;52.926;11.116;2023-01-16T14:32:27;98474.56;;;6.18;86.46
49104;BME280;34915;52.926;11.116;2023-01-16T14:37:32;98463.09;;;6.10;86.21
49104;BME280;34915;52.926;11.116;2023-01-16T14:40:02;98462.53;;;6.06;88.42
49104;BME280;34915;52.926;11.116;2023-01-16T14:42:29;98456.47;;;6.15;88.50
49104;BME280;34915;52.926;11.116;2023-01-16T14:45:24;98464.22;;;6.07;88.15
49104;BME280;34915;52.926;11.116;2023-01-16T14:56:37;98439.56;;;6.08;87.44
49104;BME280;34915;52.926;11.116;2023-01-16T14:59:06;98423.81;;;6.08;87.46
49104;BME280;34915;52.926;11.116;2023-01-16T15:01:38;98434.31;;;6.08;86.29
49104;BME280;34915;52.926;11.116;2023-01-16T15:04:28;98426.88;;;6.13;84.95
49104;BME280;34915;52.926;11.116;2023-01-16T15:07:00;98425.19;;;6.12;85.51
49104;BME280;34915;52.926;11.116;2023-01-16T15:09:29;98430.19;;;6.15;85.44
49104;BME280;34915;52.926;11.116;2023-01-16T15:12:10;98423.00;;;6.17;86.29
49104;BME280;34915;52.926;11.116;2023-01-16T15:14:36;98409.16;;;6.15;85.56
49104;BME280;34915;52.926;11.116;2023-01-16T15:17:06;98403.91;;;6.15;86.30
49104;BME280;34915;52.926;11.116;2023-01-16T15:23:01;98399.59;;;6.14;86.15
49104;BME280;34915;52.926;11.116;2023-01-16T15:30:41;98379.56;;;6.13;85.73
49104;BME280;34915;52.926;11.116;2023-01-16T15:33:24;98375.16;;;6.04;85.95
49104;BME280;34915;52.926;11.116;2023-01-16T15:41:41;98371.53;;;6.05;84.82
49104;BME280;34915;52.926;11.116;2023-01-16T15:44:27;98375.44;;;6.01;86.62
49104;BME280;34915;52.926;11.116;2023-01-16T15:52:33;98378.06;;;6.01;86.19
49104;BME280;34915;52.926;11.116;2023-01-16T15:55:16;98371.81;;;6.02;84.91